Abuja, Nigeria

1:25 PM WAT on May 29, 2015 (GMT +0100)
Nnamdi Azikiwe International | | Change Station
CLOSE
Current Station
Airport
Location: Nnamdi Azikiwe Internatio,
Elevation: 1122 ft
Nearby Weather Stations

Elev 1122 ft 9.01 °N, 7.26 °E | Updated 2 hours ago

Partly Cloudy
Partly Cloudy
84 °F
Feels Like 88 °F
N
6
Wind Variable Wind from SW

Today
High -- | Low -- °F
--% Chance of Precip.
Yesterday
High -- | Low -- °F
Precip. -- in
6:10 AM 6:47 PM
Waxing Gibbous, 83% visible
Pressure 29.95 in
Visibility 6.2 miles
Clouds Few 1000 ft
Heat Index 88 °F
Dew Point 70 °F
Humidity 62%
Rainfall 0.00 in
Snow Depth Not available.
UV 14 out of 12
Pollen Not available.
Air Quality Not available.
Flu Activity Not available.
METAR DNAA 291000Z 23005KT 190V260 9999 FEW010 29/21 Q1014 NOSIG

More Conditions Fewer Conditions

Pressure 29.95 in
Visibility 6.2 miles
Clouds Few 1000 ft
Heat Index 88 °F
Dew Point 70 °F
Humidity 62%
Rainfall 0.00 in
Snow Depth Not available.
UV 14 out of 12
Pollen Not available.
Air Quality Not available.
Flu Activity Not available.
METAR DNAA 291000Z 23005KT 190V260 9999 FEW010 29/21 Q1014 NOSIG

More Conditions Fewer Conditions

10-Day Weather Forecast

Almanac

Astronomy

May. 29, 2015 Rise Set
Actual Time
Civil Twilight
Nautical Twilight
Astronomical Twilight
Moon
Length of Visible Light
Length of Day
Tomorrow will be .
, % of the Moon is Illuminated

Today's Extremes

Country Highs Country Lows

Community

WunderPhotos

Upload Photos

1,825,252 photos uploaded!

WunderBlogs® & News

Nearby

Air Quality

  Air Quality AQ Index Pollutant
Not available.

Snow Depth

Station Depth Elevation

Earthquake Activity

City Distance Mag. Time & Date
Minimum magnitude displayed is 2.5.

Coastal Water Temperatures

Place Temperature

Stations

Nearby Weather Stations

Station Location Temp. Windchill Dew Point Humidity Wind Precip. Elev Updated Type